createdAt,value
2022-10-16T00:01:19.436Z,70.49
2022-10-16T00:03:46.606Z,70.67
2022-10-16T00:06:14.287Z,70.93
2022-10-16T00:08:41.816Z,70.62
2022-10-16T00:11:17.415Z,70.99
2022-10-16T00:13:45.080Z,70.43
2022-10-16T00:16:12.609Z,70.16
2022-10-16T00:18:39.443Z,70.44
2022-10-16T00:21:08.848Z,70.13
2022-10-16T00:23:36.012Z,69.89
2022-10-16T00:26:05.865Z,69.80
2022-10-16T00:28:33.035Z,69.77
2022-10-16T00:30:59.958Z,70.03
2022-10-16T00:33:26.390Z,70.51
2022-10-16T00:35:52.824Z,69.96
2022-10-16T00:38:19.299Z,70.83
2022-10-16T00:40:45.773Z,70.13
2022-10-16T00:43:46.864Z,70.40
2022-10-16T00:46:38.089Z,70.37
2022-10-16T00:49:10.231Z,70.04
2022-10-16T00:51:39.920Z,70.26
2022-10-16T00:54:11.485Z,70.21
2022-10-16T00:56:38.267Z,70.40
2022-10-16T00:59:10.319Z,70.86
2022-10-16T01:01:36.906Z,70.74
2022-10-16T01:04:03.509Z,69.93
2022-10-16T01:07:25.653Z,69.57
2022-10-16T01:10:11.507Z,69.96
2022-10-16T01:13:02.275Z,70.25
2022-10-16T01:15:43.984Z,70.27
2022-10-16T01:18:48.986Z,70.26
2022-10-16T01:21:38.984Z,70.99
2022-10-16T01:24:14.218Z,70.28
2022-10-16T01:27:04.144Z,70.60
2022-10-16T01:29:39.485Z,70.46
2022-10-16T01:32:38.879Z,70.33
2022-10-16T01:35:23.032Z,70.08
2022-10-16T01:37:57.474Z,70.44
2022-10-16T01:40:27.725Z,70.44
2022-10-16T01:43:00.256Z,70.75
2022-10-16T01:45:29.502Z,71.38
2022-10-16T01:47:56.726Z,71.47
2022-10-16T01:50:25.340Z,70.95
2022-10-16T01:52:54.069Z,71.18
2022-10-16T01:55:27.684Z,70.63
2022-10-16T01:57:55.783Z,70.66
2022-10-16T02:00:23.826Z,70.34
2022-10-16T02:02:53.460Z,70.66
2022-10-16T02:05:35.066Z,70.54
2022-10-16T02:08:04.668Z,70.59
2022-10-16T02:10:33.040Z,70.02
2022-10-16T02:13:08.885Z,70.63
2022-10-16T02:15:35.887Z,70.36
2022-10-16T02:18:04.005Z,70.85
2022-10-16T02:20:49.709Z,71.22
2022-10-16T02:23:35.891Z,71.42
2022-10-16T02:26:07.193Z,71.49
2022-10-16T02:28:45.382Z,71.27
2022-10-16T02:31:17.252Z,69.96
2022-10-16T02:33:44.668Z,70.13
2022-10-16T02:36:11.766Z,70.31
2022-10-16T02:38:40.521Z,70.64
2022-10-16T02:41:07.314Z,70.49
2022-10-16T02:43:34.680Z,70.37
2022-10-16T02:46:01.500Z,69.99
2022-10-16T02:48:27.896Z,69.69
2022-10-16T02:50:54.330Z,70.02
2022-10-16T02:53:20.815Z,70.78
2022-10-16T02:55:47.236Z,70.22
2022-10-16T02:58:13.672Z,69.50
2022-10-16T03:00:40.502Z,69.18
2022-10-16T03:03:07.121Z,69.28
2022-10-16T03:05:33.543Z,69.11
2022-10-16T03:08:01.685Z,70.25
2022-10-16T03:10:28.414Z,70.49
2022-10-16T03:12:54.886Z,69.74
2022-10-16T03:15:21.426Z,70.01
2022-10-16T03:17:47.984Z,70.41
2022-10-16T03:20:14.654Z,70.81
2022-10-16T03:22:41.081Z,70.69
2022-10-16T03:25:08.040Z,70.55
2022-10-16T03:27:34.476Z,70.54
2022-10-16T03:30:00.920Z,70.17
2022-10-16T03:32:28.862Z,69.88
2022-10-16T03:34:57.299Z,70.46
2022-10-16T03:37:24.330Z,70.78
2022-10-16T03:39:50.984Z,70.28
2022-10-16T03:42:17.514Z,70.82
2022-10-16T03:44:43.901Z,70.58
2022-10-16T03:47:10.342Z,71.28
2022-10-16T03:49:36.791Z,71.62
2022-10-16T03:52:03.342Z,71.47
2022-10-16T03:54:29.791Z,71.31
2022-10-16T03:56:56.387Z,71.19
2022-10-16T03:59:22.832Z,71.64
2022-10-16T04:01:49.572Z,71.06
2022-10-16T04:04:16.015Z,71.32
2022-10-16T04:06:42.459Z,71.36
2022-10-16T04:09:08.886Z,71.58
2022-10-16T04:11:35.335Z,71.33
2022-10-16T04:14:01.897Z,71.79
2022-10-16T04:16:28.296Z,71.54
2022-10-16T04:18:54.695Z,71.63
2022-10-16T04:21:21.189Z,70.86
2022-10-16T04:23:47.605Z,71.39
2022-10-16T04:26:14.109Z,71.24
2022-10-16T04:28:41.119Z,71.20
2022-10-16T04:31:08.086Z,70.90
2022-10-16T04:33:34.636Z,71.38
2022-10-16T04:36:02.621Z,71.30
2022-10-16T04:38:29.138Z,70.59
2022-10-16T04:40:55.683Z,70.43
2022-10-16T04:43:22.698Z,70.19
2022-10-16T04:45:51.471Z,70.23
2022-10-16T04:48:18.621Z,70.75
2022-10-16T04:50:45.271Z,70.21
2022-10-16T04:53:11.781Z,70.57
2022-10-16T04:55:39.030Z,71.63
2022-10-16T04:58:06.039Z,71.69
2022-10-16T05:00:32.558Z,72.34
2022-10-16T05:03:00.676Z,72.46
2022-10-16T05:05:28.096Z,72.29
2022-10-16T05:07:54.687Z,71.74
2022-10-16T05:10:21.529Z,71.18
2022-10-16T05:12:48.056Z,71.14
2022-10-16T05:15:14.618Z,71.98
2022-10-16T05:17:43.923Z,72.00
2022-10-16T05:20:12.041Z,71.32
2022-10-16T05:22:38.501Z,71.66
2022-10-16T05:25:05.416Z,72.31
2022-10-16T05:27:31.885Z,73.10
2022-10-16T05:29:58.298Z,74.25
2022-10-16T05:32:24.838Z,74.63
2022-10-16T05:34:51.645Z,73.76
2022-10-16T05:37:18.044Z,73.64
2022-10-16T05:39:44.515Z,74.82
2022-10-16T05:42:10.943Z,75.36
2022-10-16T05:44:37.437Z,74.42
2022-10-16T05:47:03.966Z,74.25
2022-10-16T05:49:30.386Z,73.33
2022-10-16T05:51:56.789Z,72.81
2022-10-16T05:54:23.289Z,73.00
2022-10-16T05:56:49.731Z,73.34
2022-10-16T05:59:16.410Z,73.38
2022-10-16T06:01:42.811Z,73.30
2022-10-16T06:06:41.542Z,72.39
2022-10-16T06:09:07.996Z,72.13
2022-10-16T06:11:34.908Z,72.47
2022-10-16T06:14:03.666Z,72.60
2022-10-16T06:16:30.367Z,72.61
2022-10-16T06:18:57.195Z,73.21
2022-10-16T06:21:25.983Z,73.29
2022-10-16T06:23:52.981Z,73.78
2022-10-16T06:26:22.718Z,73.15
2022-10-16T06:28:49.568Z,72.35
2022-10-16T06:31:16.902Z,72.54
2022-10-16T06:33:43.593Z,73.45
2022-10-16T06:36:15.873Z,73.41
2022-10-16T06:38:43.236Z,72.64
2022-10-16T06:41:13.883Z,73.33
2022-10-16T06:43:40.306Z,72.64
2022-10-16T06:46:10.340Z,72.81
2022-10-16T06:48:37.406Z,72.18
2022-10-16T06:51:07.115Z,72.09
2022-10-16T06:53:39.897Z,71.72
2022-10-16T06:56:32.037Z,71.79
2022-10-16T06:58:59.080Z,71.79
2022-10-16T07:01:26.990Z,72.16
2022-10-16T07:03:53.776Z,71.57
2022-10-16T07:06:22.701Z,71.02
2022-10-16T07:08:49.920Z,70.59
2022-10-16T07:11:19.254Z,70.46
2022-10-16T07:13:50.876Z,69.90
2022-10-16T07:16:23.798Z,69.84
2022-10-16T07:18:55.030Z,69.83
2022-10-16T07:21:23.611Z,70.21
2022-10-16T07:23:54.963Z,69.85
2022-10-16T07:26:22.222Z,69.83
2022-10-16T07:28:49.008Z,68.70
2022-10-16T07:31:17.234Z,69.42
2022-10-16T07:33:45.787Z,69.75
2022-10-16T07:36:16.332Z,69.90
2022-10-16T07:38:43.765Z,68.84
2022-10-16T07:41:15.644Z,68.08
2022-10-16T07:43:49.553Z,68.38
2022-10-16T07:46:17.459Z,68.34
2022-10-16T07:48:47.182Z,67.49
2022-10-16T07:51:18.929Z,69.08
2022-10-16T07:53:45.478Z,68.34
2022-10-16T07:56:12.782Z,68.27
2022-10-16T07:58:39.866Z,68.20
2022-10-16T08:01:09.045Z,67.86
2022-10-16T08:03:36.065Z,68.46
2022-10-16T08:06:03.312Z,68.64
2022-10-16T08:08:29.841Z,68.13
2022-10-16T08:10:56.461Z,67.43
2022-10-16T08:13:23.061Z,67.24
2022-10-16T08:15:49.473Z,67.56
2022-10-16T08:18:16.577Z,67.26
2022-10-16T08:20:43.802Z,67.33
2022-10-16T08:23:12.794Z,66.89
2022-10-16T08:25:39.305Z,66.35
2022-10-16T08:28:07.240Z,66.41
2022-10-16T08:30:34.456Z,66.22
2022-10-16T08:33:02.436Z,66.24
2022-10-16T08:35:29.057Z,65.16
2022-10-16T08:37:55.537Z,64.80
2022-10-16T08:40:33.479Z,65.17
2022-10-16T08:43:24.723Z,64.89
2022-10-16T08:46:20.634Z,65.91
2022-10-16T08:48:50.135Z,64.99
2022-10-16T08:51:39.124Z,64.68
2022-10-16T08:54:29.345Z,65.40
2022-10-16T08:56:57.689Z,64.81
2022-10-16T08:59:24.221Z,64.79
2022-10-16T09:01:52.846Z,64.49
2022-10-16T09:04:44.109Z,63.61
2022-10-16T09:07:24.481Z,61.88
2022-10-16T09:10:05.837Z,59.53
2022-10-16T09:12:43.484Z,59.70
2022-10-16T09:15:25.585Z,59.42
2022-10-16T09:18:06.693Z,60.46
2022-10-16T09:20:42.221Z,59.53
2022-10-16T09:23:14.983Z,59.29
2022-10-16T09:25:45.823Z,59.19
2022-10-16T09:28:12.376Z,57.34
2022-10-16T09:30:40.435Z,57.02
2022-10-16T09:33:08.768Z,56.80
2022-10-16T09:35:40.817Z,56.75
2022-10-16T09:38:08.381Z,56.27
2022-10-16T09:40:40.020Z,55.46
2022-10-16T09:43:23.618Z,53.37
2022-10-16T09:46:01.911Z,51.13
2022-10-16T09:48:38.005Z,52.12
2022-10-16T09:51:06.818Z,52.00
2022-10-16T09:53:45.141Z,53.17
2022-10-16T09:56:21.511Z,53.23
2022-10-16T09:58:56.492Z,52.13
2022-10-16T10:01:38.636Z,52.25
2022-10-16T10:04:06.078Z,49.71
2022-10-16T10:06:41.411Z,48.90
2022-10-16T10:09:26.102Z,50.27
2022-10-16T10:11:57.746Z,49.83
2022-10-16T10:14:24.197Z,52.42
2022-10-16T10:16:52.280Z,51.43
2022-10-16T10:19:28.057Z,52.12
2022-10-16T10:21:57.007Z,52.44
2022-10-16T10:24:23.473Z,51.18
2022-10-16T10:27:01.235Z,52.11
2022-10-16T10:29:46.022Z,53.37
2022-10-16T10:32:18.368Z,52.40
2022-10-16T10:35:12.817Z,52.01
2022-10-16T10:37:45.033Z,51.94
2022-10-16T10:40:35.600Z,50.74
2022-10-16T10:43:32.534Z,50.60
2022-10-16T10:46:05.739Z,49.54
2022-10-16T10:48:48.460Z,48.35
2022-10-16T10:51:53.825Z,48.44
2022-10-16T10:54:38.940Z,47.65
2022-10-16T10:57:30.673Z,47.90
2022-10-16T11:00:18.195Z,47.40
2022-10-16T11:02:56.243Z,47.90
2022-10-16T11:05:30.055Z,48.08
2022-10-16T11:08:01.599Z,45.76
2022-10-16T11:10:46.680Z,44.76
2022-10-16T11:13:36.853Z,42.98
2022-10-16T11:16:17.666Z,42.68
2022-10-16T11:19:05.560Z,42.60
2022-10-16T11:21:51.289Z,42.98
2022-10-16T11:24:31.716Z,45.49
2022-10-16T11:27:05.571Z,44.56
2022-10-16T11:29:33.140Z,44.77
2022-10-16T11:32:07.729Z,44.87
2022-10-16T11:34:56.830Z,44.98
2022-10-16T11:37:32.182Z,44.90
2022-10-16T11:40:15.990Z,44.23
2022-10-16T11:42:50.036Z,42.60
2022-10-16T11:45:41.035Z,42.04
2022-10-16T11:48:25.930Z,40.93
2022-10-16T11:51:39.031Z,42.31
2022-10-16T11:54:33.575Z,41.85
2022-10-16T11:57:10.170Z,42.00
2022-10-16T11:59:45.849Z,42.92
2022-10-16T12:02:39.675Z,41.79
2022-10-16T12:05:36.282Z,41.01
2022-10-16T12:08:16.376Z,41.21
2022-10-16T12:10:45.617Z,40.82
2022-10-16T12:13:35.748Z,40.32
2022-10-16T12:16:14.176Z,39.99
2022-10-16T12:18:46.345Z,39.04
2022-10-16T12:21:16.781Z,39.40
2022-10-16T12:23:55.666Z,38.30
2022-10-16T12:26:31.027Z,38.50
2022-10-16T12:29:15.885Z,37.17
2022-10-16T12:31:54.858Z,34.80
2022-10-16T12:34:28.164Z,33.11
2022-10-16T12:36:55.479Z,31.69
2022-10-16T12:39:26.191Z,30.24
2022-10-16T12:42:07.056Z,28.37
2022-10-16T12:44:35.840Z,28.08
2022-10-16T12:47:03.922Z,27.66
2022-10-16T12:49:36.537Z,26.59
2022-10-16T12:52:04.324Z,28.05
2022-10-16T12:54:36.300Z,31.80
2022-10-16T12:57:33.467Z,34.54
2022-10-16T13:00:26.419Z,35.10
2022-10-16T13:03:14.515Z,37.31
2022-10-16T13:05:54.567Z,38.26
2022-10-16T13:08:33.437Z,39.79
2022-10-16T13:11:10.056Z,40.96
2022-10-16T13:13:54.703Z,41.71
2022-10-16T13:16:23.865Z,41.41
2022-10-16T13:19:15.443Z,42.08
2022-10-16T13:22:16.203Z,42.42
2022-10-16T13:25:18.990Z,42.82
2022-10-16T13:28:01.957Z,42.41
2022-10-16T13:30:31.144Z,42.79
2022-10-16T13:33:28.780Z,42.72
2022-10-16T13:35:57.911Z,42.89
2022-10-16T13:38:27.965Z,42.78
2022-10-16T13:40:54.359Z,43.06
2022-10-16T13:43:27.194Z,42.94
2022-10-16T13:45:58.945Z,42.70
2022-10-16T13:48:25.897Z,43.75
2022-10-16T13:51:12.672Z,43.31
2022-10-16T13:53:39.701Z,43.52
2022-10-16T13:56:10.793Z,43.35
2022-10-16T13:58:37.284Z,43.98
2022-10-16T14:01:06.867Z,44.15
2022-10-16T14:03:36.522Z,44.40
2022-10-16T14:06:11.954Z,43.62
2022-10-16T14:08:44.434Z,44.10
2022-10-16T14:11:11.431Z,43.94
2022-10-16T14:13:45.757Z,44.58
2022-10-16T14:16:19.385Z,44.20
2022-10-16T14:19:02.013Z,43.51
2022-10-16T14:21:29.586Z,44.42
2022-10-16T14:23:56.876Z,44.62
2022-10-16T14:26:25.195Z,45.51
2022-10-16T14:29:10.215Z,45.01
2022-10-16T14:31:37.999Z,44.85
2022-10-16T14:34:05.105Z,45.39
2022-10-16T14:36:31.931Z,45.20
2022-10-16T14:39:03.013Z,44.98
2022-10-16T14:41:32.019Z,45.15
2022-10-16T14:44:04.453Z,44.95
2022-10-16T14:46:39.157Z,45.33
2022-10-16T14:49:11.339Z,45.34
2022-10-16T14:51:42.929Z,45.12
2022-10-16T14:54:09.663Z,45.04
2022-10-16T14:56:59.540Z,45.38
2022-10-16T14:59:30.944Z,44.82
2022-10-16T15:01:57.767Z,45.00
2022-10-16T15:04:24.193Z,44.76
2022-10-16T15:06:50.669Z,45.33
2022-10-16T15:09:17.364Z,45.34
2022-10-16T15:11:44.161Z,45.68
2022-10-16T15:16:46.868Z,46.05
2022-10-16T15:19:13.327Z,45.99
2022-10-16T15:21:39.758Z,46.31
2022-10-16T15:24:10.375Z,46.67
2022-10-16T15:26:36.771Z,45.41
2022-10-16T15:29:03.219Z,46.33
2022-10-16T15:31:29.685Z,45.93
2022-10-16T15:33:59.209Z,45.58
2022-10-16T15:36:30.289Z,45.83
2022-10-16T15:38:56.998Z,46.03
2022-10-16T15:41:23.998Z,46.75
2022-10-16T15:43:51.607Z,46.26
2022-10-16T15:46:23.001Z,46.53
2022-10-16T15:48:50.356Z,46.64
2022-10-16T15:51:17.332Z,46.85
2022-10-16T15:53:44.036Z,46.21
2022-10-16T15:56:12.151Z,46.77
2022-10-16T15:58:38.956Z,46.62
2022-10-16T16:01:06.370Z,46.80
2022-10-16T16:03:33.773Z,47.43
2022-10-16T16:06:05.406Z,47.92
2022-10-16T16:08:31.722Z,47.83
2022-10-16T16:11:06.681Z,48.13
2022-10-16T16:13:33.304Z,47.99
2022-10-16T16:15:59.748Z,48.15
2022-10-16T16:18:26.655Z,47.89
2022-10-16T16:20:53.474Z,48.16
2022-10-16T16:23:20.872Z,49.29
2022-10-16T16:26:08.794Z,48.54
2022-10-16T16:28:35.469Z,49.34
2022-10-16T16:31:01.977Z,48.77
2022-10-16T16:33:28.418Z,49.06
2022-10-16T16:35:59.644Z,48.91
2022-10-16T16:38:27.127Z,48.86
2022-10-16T16:40:56.193Z,49.49
2022-10-16T16:43:27.340Z,49.84
2022-10-16T16:45:55.179Z,49.51
2022-10-16T16:48:22.388Z,49.90
2022-10-16T16:50:48.959Z,50.18
2022-10-16T16:53:15.559Z,50.15
2022-10-16T16:55:42.054Z,49.90
2022-10-16T16:58:08.535Z,50.02
2022-10-16T17:00:35.015Z,50.15
2022-10-16T17:03:01.453Z,50.40
2022-10-16T17:05:27.884Z,50.16
2022-10-16T17:07:54.414Z,50.60
2022-10-16T17:10:20.863Z,50.12
2022-10-16T17:12:47.406Z,50.11
2022-10-16T17:15:13.946Z,50.26
2022-10-16T17:17:41.197Z,50.13
2022-10-16T17:20:09.886Z,50.73
2022-10-16T17:22:36.464Z,50.77
2022-10-16T17:25:04.501Z,50.82
2022-10-16T17:27:31.044Z,51.09
2022-10-16T17:29:57.519Z,51.04
2022-10-16T17:32:24.051Z,51.10
2022-10-16T17:34:50.537Z,51.10
2022-10-16T17:37:18.158Z,51.37
2022-10-16T17:39:44.891Z,51.47
2022-10-16T17:42:11.362Z,51.55
2022-10-16T17:44:37.984Z,51.55
2022-10-16T17:47:04.473Z,51.60
2022-10-16T17:49:30.867Z,51.54
2022-10-16T17:51:57.377Z,51.79
2022-10-16T17:54:23.788Z,51.83
2022-10-16T17:56:50.250Z,51.70
2022-10-16T17:59:16.734Z,51.99
2022-10-16T18:01:45.973Z,51.93
2022-10-16T18:04:15.007Z,52.49
2022-10-16T18:06:44.153Z,52.66
2022-10-16T18:09:14.145Z,52.13
2022-10-16T18:11:40.644Z,52.28
2022-10-16T18:14:07.108Z,52.39
2022-10-16T18:16:33.887Z,52.33
2022-10-16T18:19:00.345Z,52.46
2022-10-16T18:21:27.982Z,52.50
2022-10-16T18:23:55.779Z,52.82
2022-10-16T18:26:23.232Z,52.80
2022-10-16T18:28:53.507Z,52.61
2022-10-16T18:31:20.990Z,52.76
2022-10-16T18:33:51.556Z,52.71
2022-10-16T18:36:21.294Z,53.08
2022-10-16T18:38:48.065Z,53.47
2022-10-16T18:41:14.812Z,53.37
2022-10-16T18:43:41.473Z,53.42
2022-10-16T18:46:11.425Z,53.46
2022-10-16T18:48:38.377Z,53.54
2022-10-16T18:51:16.571Z,53.64
2022-10-16T18:53:45.370Z,53.98
2022-10-16T18:56:14.053Z,53.71
2022-10-16T18:58:43.034Z,53.83
2022-10-16T19:01:16.504Z,53.91
2022-10-16T19:03:44.013Z,54.01
2022-10-16T19:06:13.796Z,54.09
2022-10-16T19:08:41.237Z,54.23
2022-10-16T19:11:16.731Z,54.34
2022-10-16T19:13:44.507Z,54.23
2022-10-16T19:16:20.507Z,54.49
2022-10-16T19:18:54.234Z,54.52
2022-10-16T19:21:21.531Z,54.42
2022-10-16T19:23:52.786Z,54.68
2022-10-16T19:26:20.768Z,54.55
2022-10-16T19:28:47.536Z,54.80
2022-10-16T19:31:17.266Z,55.27
2022-10-16T19:33:43.975Z,55.03
2022-10-16T19:36:17.362Z,54.86
2022-10-16T19:38:45.667Z,55.13
2022-10-16T19:41:14.889Z,55.17
2022-10-16T19:43:41.732Z,55.15
2022-10-16T19:46:10.801Z,55.16
2022-10-16T19:48:38.010Z,55.27
2022-10-16T19:51:05.115Z,55.43
2022-10-16T19:53:32.421Z,55.60
2022-10-16T19:55:59.488Z,55.38
2022-10-16T19:58:26.392Z,55.23
2022-10-16T20:00:54.271Z,55.27
2022-10-16T20:03:20.906Z,55.24
2022-10-16T20:05:52.256Z,55.24
2022-10-16T20:08:18.702Z,55.34
2022-10-16T20:10:52.214Z,55.45
2022-10-16T20:13:19.791Z,55.53
2022-10-16T20:15:46.452Z,55.75
2022-10-16T20:18:13.757Z,55.99
2022-10-16T20:20:41.474Z,55.91
2022-10-16T20:23:08.170Z,56.00
2022-10-16T20:25:36.451Z,56.12
2022-10-16T20:28:03.139Z,56.17
2022-10-16T20:30:37.780Z,56.11
2022-10-16T20:33:04.844Z,56.66
2022-10-16T20:35:36.921Z,56.17
2022-10-16T20:38:03.639Z,55.96
2022-10-16T20:40:30.547Z,56.19
2022-10-16T20:42:56.948Z,56.23
2022-10-16T20:45:23.380Z,56.31
2022-10-16T20:47:49.815Z,56.34
2022-10-16T20:50:16.356Z,56.21
2022-10-16T20:52:42.839Z,55.97
2022-10-16T20:55:09.632Z,55.80
2022-10-16T20:57:36.070Z,55.62
2022-10-16T21:00:03.442Z,55.83
2022-10-16T21:02:29.890Z,55.65
2022-10-16T21:04:56.304Z,55.60
2022-10-16T21:07:22.710Z,55.88
2022-10-16T21:09:49.124Z,55.78
2022-10-16T21:12:15.545Z,56.20
2022-10-16T21:14:46.424Z,56.03
2022-10-16T21:17:22.953Z,55.93
2022-10-16T21:19:49.476Z,55.99
2022-10-16T21:22:15.983Z,56.39
2022-10-16T21:24:42.472Z,56.52
2022-10-16T21:27:08.917Z,56.56
2022-10-16T21:29:35.445Z,56.42
2022-10-16T21:32:02.061Z,56.72
2022-10-16T21:34:28.535Z,56.61
2022-10-16T21:36:54.963Z,56.60
2022-10-16T21:39:21.618Z,56.71
2022-10-16T21:41:50.760Z,56.57
2022-10-16T21:44:20.041Z,56.54
2022-10-16T21:46:46.846Z,56.83
2022-10-16T21:49:19.194Z,56.71
2022-10-16T21:51:48.155Z,57.20
2022-10-16T21:54:17.720Z,57.00
2022-10-16T21:56:44.478Z,56.98
2022-10-16T21:59:12.766Z,57.20
2022-10-16T22:01:40.249Z,57.09
2022-10-16T22:04:06.742Z,57.16
2022-10-16T22:06:33.186Z,57.25
2022-10-16T22:09:00.994Z,57.38
2022-10-16T22:11:38.879Z,57.52
2022-10-16T22:14:18.831Z,57.34
2022-10-16T22:16:46.283Z,57.62
2022-10-16T22:19:14.777Z,57.56
2022-10-16T22:21:43.019Z,57.91
2022-10-16T22:24:09.742Z,57.97
2022-10-16T22:26:36.920Z,58.27
2022-10-16T22:29:03.925Z,58.38
2022-10-16T22:31:30.511Z,58.51
2022-10-16T22:34:03.389Z,58.62
2022-10-16T22:36:30.499Z,58.37
2022-10-16T22:38:57.806Z,58.40
2022-10-16T22:41:24.837Z,58.90
2022-10-16T22:43:52.008Z,58.41
2022-10-16T22:46:24.443Z,58.93
2022-10-16T22:48:51.503Z,58.59
2022-10-16T22:51:19.056Z,58.50
2022-10-16T22:53:46.933Z,58.44
2022-10-16T22:56:14.990Z,58.47
2022-10-16T22:58:42.044Z,58.85
2022-10-16T23:01:36.307Z,58.86
2022-10-16T23:04:03.318Z,58.95
2022-10-16T23:06:29.943Z,58.79
2022-10-16T23:08:59.337Z,58.89
2022-10-16T23:11:28.011Z,59.01
2022-10-16T23:13:55.690Z,59.06
2022-10-16T23:16:23.826Z,58.89
2022-10-16T23:18:50.448Z,59.01
2022-10-16T23:21:20.907Z,58.95
2022-10-16T23:23:48.068Z,58.91
2022-10-16T23:26:17.783Z,58.86
2022-10-16T23:28:44.662Z,58.74
2022-10-16T23:31:12.527Z,58.63
2022-10-16T23:33:39.791Z,59.01
2022-10-16T23:36:09.502Z,58.84
2022-10-16T23:38:36.258Z,59.03
2022-10-16T23:41:02.805Z,58.77
2022-10-16T23:43:29.909Z,58.90
2022-10-16T23:45:56.431Z,58.85
2022-10-16T23:48:23.338Z,59.39
2022-10-16T23:50:49.779Z,59.51
2022-10-16T23:53:16.471Z,59.53
2022-10-16T23:55:42.939Z,59.19
2022-10-16T23:58:09.385Z,59.19
